Time;durP1;ratioP1;P1;durP2;ratioP2;P2;SDS_P1;SDS_P2;PMS_P1;PMS_P2;Temp;Humidity;BMP_temperature;BMP_pressure;BME280_temperature;BME280_humidity;BME280_pressure;Samples;Min_cycle;Max_cycle;Signal;HPM_P1;HPM_P2
2022/10/09 00:01:48;;;;;;;;;;;;;;;;;;8405176;27;28367;-77
2022/10/09 00:05:48;;;;;;;;;;;;;;;;;;8404753;28;27205;-77
2022/10/09 00:09:48;;;;;;;;;;;;;;;;;;8413185;28;27264;-77
2022/10/09 00:13:48;;;;;;;;;;;;;;;;;;8409874;27;27398;-76
2022/10/09 00:17:48;;;;;;;;;;;;;;;;;;8409480;28;28515;-76
2022/10/09 00:21:49;;;;;;;;;;;;;;;;;;8409692;28;27211;-77
2022/10/09 00:25:49;;;;;;;;;;;;;;;;;;8411776;28;27411;-77
2022/10/09 00:29:49;;;;;;;;;;;;;;;;;;8425668;27;27117;-78
2022/10/09 00:33:49;;;;;;;;;;;;;;;;;;8436549;28;28270;-77
2022/10/09 00:37:49;;;;;;;;;;;;;;;;;;8444317;28;27215;-77
2022/10/09 00:41:49;;;;;;;;;;;;;;;;;;8438398;27;28496;-77
2022/10/09 00:45:49;;;;;;;;;;;;;;;;;;8439824;27;28243;-77
2022/10/09 00:49:50;;;;;;;;;;;;;;;;;;8451922;28;27064;-76
2022/10/09 00:53:50;;;;;;;;;;;;;;;;;;8470373;27;28398;-76
2022/10/09 00:57:50;;;;;;;;;;;;;;;;;;8437999;27;28476;-76
2022/10/09 01:01:50;;;;;;;;;;;;;;;;;;8414243;27;27701;-76
2022/10/09 01:05:50;;;;;;;;;;;;;;;;;;8416051;28;27302;-77
2022/10/09 01:09:50;;;;;;;;;;;;;;;;;;8414882;27;28205;-76
2022/10/09 01:13:50;;;;;;;;;;;;;;;;;;8412538;28;27537;-77
2022/10/09 01:17:51;;;;;;;;;;;;;;;;;;8418790;28;28093;-77
2022/10/09 01:21:51;;;;;;;;;;;;;;;;;;8411845;28;29426;-76
2022/10/09 01:25:51;;;;;;;;;;;;;;;;;;8416609;28;28404;-78
2022/10/09 01:29:51;;;;;;;;;;;;;;;;;;8412320;28;28882;-77
2022/10/09 01:33:51;;;;;;;;;;;;;;;;;;8411566;28;28038;-77
2022/10/09 01:37:51;;;;;;;;;;;;;;;;;;8409152;28;28104;-76
2022/10/09 01:41:52;;;;;;;;;;;;;;;;;;8399450;28;27511;-76
2022/10/09 01:45:52;;;;;;;;;;;;;;;;;;8411676;27;27194;-76
2022/10/09 01:49:52;;;;;;;;;;;;;;;;;;8422948;27;28045;-77
2022/10/09 01:53:52;;;;;;;;;;;;;;;;;;8410328;28;28267;-76
2022/10/09 01:57:52;;;;;;;;;;;;;;;;;;8412113;27;27297;-76
2022/10/09 02:01:52;;;;;;;;;;;;;;;;;;8411487;28;27204;-76
2022/10/09 02:05:52;;;;;;;;;;;;;;;;;;8423264;27;28202;-76
2022/10/09 02:09:53;;;;;;;;;;;;;;;;;;8407587;28;27525;-75
2022/10/09 02:13:53;;;;;;;;;;;;;;;;;;8406610;28;29013;-75
2022/10/09 02:17:53;;;;;;;;;;;;;;;;;;8412855;28;27481;-76
2022/10/09 02:21:53;;;;;;;;;;;;;;;;;;8408197;27;28576;-75
2022/10/09 02:25:53;;;;;;;;;;;;;;;;;;8410425;28;27868;-76
2022/10/09 02:29:53;;;;;;;;;;;;;;;;;;8426507;27;29483;-76
2022/10/09 02:33:54;;;;;;;;;;;;;;;;;;8414856;28;27728;-76
2022/10/09 02:37:54;;;;;;;;;;;;;;;;;;8397639;28;28223;-77
2022/10/09 02:41:54;;;;;;;;;;;;;;;;;;8403574;28;28779;-77
2022/10/09 02:45:54;;;;;;;;;;;;;;;;;;8402861;28;28650;-77
2022/10/09 02:49:55;;;;;;;;;;;;;;;;;;8402366;27;28290;-76
2022/10/09 02:53:55;;;;;;;;;;;;;;;;;;8412076;27;28960;-76
2022/10/09 02:57:55;;;;;;;;;;;;;;;;;;8411146;27;27351;-76
2022/10/09 03:01:56;;;;;;;;;;;;;;;;;;8429699;27;29842;-75
2022/10/09 03:05:56;;;;;;;;;;;;;;;;;;8401079;28;28271;-76
2022/10/09 03:09:57;;;;;;;;;;;;;;;;;;8400848;28;28593;-76
2022/10/09 03:13:57;;;;;;;;;;;;;;;;;;8411481;27;29203;-77
2022/10/09 03:17:57;;;;;;;;;;;;;;;;;;8428196;27;27528;-76
2022/10/09 03:21:57;;;;;;;;;;;;;;;;;;8406052;28;28681;-75
2022/10/09 03:25:57;;;;;;;;;;;;;;;;;;8413119;28;28649;-76
2022/10/09 03:29:57;;;;;;;;;;;;;;;;;;8407775;28;28495;-76
2022/10/09 03:33:58;;;;;;;;;;;;;;;;;;8410940;27;28643;-75
2022/10/09 03:37:58;;;;;;;;;;;;;;;;;;8405974;27;27469;-76
2022/10/09 03:41:58;;;;;;;;;;;;;;;;;;8396239;27;28527;-76
2022/10/09 03:45:58;;;;;;;;;;;;;;;;;;8415444;28;27201;-77
2022/10/09 03:49:58;;;;;;;;;;;;;;;;;;8401292;28;28157;-76
2022/10/09 03:53:58;;;;;;;;;;;;;;;;;;8412875;27;27573;-74
2022/10/09 03:57:58;;;;;;;;;;;;;;;;;;8398061;28;29814;-75
2022/10/09 04:01:59;;;;;;;;;;;;;;;;;;8413324;27;27152;-75
2022/10/09 04:05:59;;;;;;;;;;;;;;;;;;8411737;27;27984;-76
2022/10/09 04:09:59;;;;;;;;;;;;;;;;;;8410958;28;27763;-76
2022/10/09 04:13:59;;;;;;;;;;;;;;;;;;8414027;27;28047;-76
2022/10/09 04:17:59;;;;;;;;;;;;;;;;;;8398096;28;28630;-76
2022/10/09 04:21:59;;;;;;;;;;;;;;;;;;8407479;28;27284;-75
2022/10/09 04:25:59;;;;;;;;;;;;;;;;;;8429750;27;28419;-76
2022/10/09 04:29:59;;;;;;;;;;;;;;;;;;8419002;27;27609;-77
2022/10/09 04:34:00;;;;;;;;;;;;;;;;;;8418232;27;27550;-76
2022/10/09 04:38:00;;;;;;;;;;;;;;;;;;8414797;28;27346;-77
2022/10/09 04:42:00;;;;;;;;;;;;;;;;;;8416645;27;27983;-78
2022/10/09 04:46:00;;;;;;;;;;;;;;;;;;8416671;27;29041;-76
2022/10/09 04:50:00;;;;;;;;;;;;;;;;;;8419687;27;27212;-76
2022/10/09 04:54:01;;;;;;;;;;;;;;;;;;8405556;28;29193;-77
2022/10/09 04:58:01;;;;;;;;;;;;;;;;;;8421545;28;27428;-77
2022/10/09 05:02:01;;;;;;;;;;;;;;;;;;8405963;28;28531;-77
2022/10/09 05:06:01;;;;;;;;;;;;;;;;;;8403489;28;28210;-76
2022/10/09 05:10:01;;;;;;;;;;;;;;;;;;8416576;28;28082;-77
2022/10/09 05:14:01;;;;;;;;;;;;;;;;;;8401028;28;27349;-76
2022/10/09 05:18:02;;;;;;;;;;;;;;;;;;8415877;28;29553;-76
2022/10/09 05:22:02;;;;;;;;;;;;;;;;;;8418680;28;27407;-76
2022/10/09 05:26:02;;;;;;;;;;;;;;;;;;8416527;28;27520;-76
2022/10/09 05:30:02;;;;;;;;;;;;;;;;;;8417805;28;27187;-76
2022/10/09 05:34:02;;;;;;;;;;;;;;;;;;8417207;28;27282;-77
2022/10/09 05:38:02;;;;;;;;;;;;;;;;;;8402987;28;28216;-76
2022/10/09 05:42:02;;;;;;;;;;;;;;;;;;8407908;28;28571;-76
2022/10/09 05:46:03;;;;;;;;;;;;;;;;;;8418406;27;27712;-75
2022/10/09 05:50:03;;;;;;;;;;;;;;;;;;8414318;28;28192;-75
2022/10/09 05:54:03;;;;;;;;;;;;;;;;;;8421821;27;27666;-77
2022/10/09 05:58:03;;;;;;;;;;;;;;;;;;8446290;27;27189;-77
2022/10/09 06:02:03;;;;;;;;;;;;;;;;;;8446667;28;27172;-77
2022/10/09 06:06:03;;;;;;;;;;;;;;;;;;8450889;27;27734;-77
2022/10/09 06:10:04;;;;;;;;;;;;;;;;;;8456073;27;28310;-78
2022/10/09 06:14:04;;;;;;;;;;;;;;;;;;8454069;28;28593;-77
2022/10/09 06:18:04;;;;;;;;;;;;;;;;;;8458692;28;28292;-76
2022/10/09 06:22:04;;;;;;;;;;;;;;;;;;8456124;28;27261;-77
2022/10/09 06:26:04;;;;;;;;;;;;;;;;;;8406279;27;28260;-77
2022/10/09 06:30:05;;;;;;;;;;;;;;;;;;8417141;28;27366;-77
2022/10/09 06:34:05;;;;;;;;;;;;;;;;;;8404687;27;28315;-77
2022/10/09 06:38:05;;;;;;;;;;;;;;;;;;8413411;27;28315;-76
2022/10/09 06:42:05;;;;;;;;;;;;;;;;;;8418096;28;28733;-76
2022/10/09 06:46:05;;;;;;;;;;;;;;;;;;8414146;28;28213;-77
2022/10/09 06:50:05;;;;;;;;;;;;;;;;;;8412604;28;27407;-76
2022/10/09 06:54:09;;;;;;;;;;;;;;;;;;8414742;27;28134;-75
2022/10/09 06:58:09;;;;;;;;;;;;;;;;;;8404786;28;29389;-77
2022/10/09 07:02:09;;;;;;;;;;;;;;;;;;8420732;28;27331;-76
2022/10/09 07:06:09;;;;;;;;;;;;;;;;;;8412755;28;28301;-76
2022/10/09 07:10:09;;;;;;;;;;;;;;;;;;8416775;28;28645;-76
2022/10/09 07:14:09;;;;;;;;;;;;;;;;;;8413748;27;27326;-76
2022/10/09 07:18:09;;;;;;;;;;;;;;;;;;8419388;28;27162;-76
2022/10/09 07:22:10;;;;;;;;;;;;;;;;;;8399814;28;28269;-76
2022/10/09 07:26:10;;;;;;;;;;;;;;;;;;8433746;27;28880;-76
2022/10/09 07:30:10;;;;;;;;;;;;;;;;;;8415013;28;28484;-77
2022/10/09 07:34:11;;;;;;;;;;;;;;;;;;8408265;28;28574;-76
2022/10/09 07:38:11;;;;;;;;;;;;;;;;;;8414933;27;28864;-76
2022/10/09 07:42:11;;;;;;;;;;;;;;;;;;8411219;28;28050;-77
2022/10/09 07:46:11;;;;;;;;;;;;;;;;;;8408497;27;28163;-77
2022/10/09 07:50:11;;;;;;;;;;;;;;;;;;8412016;28;28296;-76
2022/10/09 07:54:11;;;;;;;;;;;;;;;;;;8409000;28;27300;-76
2022/10/09 07:58:11;;;;;;;;;;;;;;;;;;8411160;27;27409;-76
2022/10/09 08:02:12;;;;;;;;;;;;;;;;;;8411454;27;29349;-77
2022/10/09 08:06:12;;;;;;;;;;;;;;;;;;8410575;28;28770;-77
2022/10/09 08:10:12;;;;;;;;;;;;;;;;;;8411380;27;27423;-76
2022/10/09 08:14:13;;;;;;;;;;;;;;;;;;8407608;27;27841;-77
2022/10/09 08:18:14;;;;;;;;;;;;;;;;;;8411173;28;27735;-77
2022/10/09 08:22:14;;;;;;;;;;;;;;;;;;8413387;28;27722;-77
2022/10/09 08:26:14;;;;;;;;;;;;;;;;;;8426381;27;28317;-77
2022/10/09 08:30:14;;;;;;;;;;;;;;;;;;8410642;28;27424;-78
2022/10/09 08:34:14;;;;;;;;;;;;;;;;;;8410478;28;28318;-78
2022/10/09 08:38:14;;;;;;;;;;;;;;;;;;8428145;27;31255;-78
2022/10/09 08:42:14;;;;;;;;;;;;;;;;;;8431186;27;28350;-77
2022/10/09 08:46:14;;;;;;;;;;;;;;;;;;8415365;28;27429;-77
2022/10/09 08:50:15;;;;;;;;;;;;;;;;;;8414778;28;27637;-78
2022/10/09 08:54:15;;;;;;;;;;;;;;;;;;8410099;27;27331;-76
2022/10/09 08:58:15;;;;;;;;;;;;;;;;;;8409494;28;28704;-77
2022/10/09 09:02:15;;;;;;;;;;;;;;;;;;8408777;28;27710;-77
2022/10/09 09:06:15;;;;;;;;;;;;;;;;;;8413516;28;28177;-76
2022/10/09 09:10:15;;;;;;;;;;;;;;;;;;8412936;27;28162;-76
2022/10/09 09:14:16;;;;;;;;;;;;;;;;;;8400223;27;28509;-77
2022/10/09 09:18:16;;;;;;;;;;;;;;;;;;8414560;27;27130;-76
2022/10/09 09:22:16;;;;;;;;;;;;;;;;;;8413250;27;28496;-76
2022/10/09 09:26:16;;;;;;;;;;;;;;;;;;8415719;27;28394;-76
2022/10/09 09:30:16;;;;;;;;;;;;;;;;;;8411432;27;27181;-77
2022/10/09 09:34:16;;;;;;;;;;;;;;;;;;8413679;27;28373;-77
2022/10/09 09:38:16;;;;;;;;;;;;;;;;;;8418214;27;28132;-77
2022/10/09 09:42:17;;;;;;;;;;;;;;;;;;8414621;27;29075;-76
2022/10/09 09:46:17;;;;;;;;;;;;;;;;;;8416403;28;28489;-75
2022/10/09 09:50:17;;;;;;;;;;;;;;;;;;8419683;28;27356;-75
2022/10/09 09:54:17;;;;;;;;;;;;;;;;;;8412613;28;27291;-77
2022/10/09 09:58:17;;;;;;;;;;;;;;;;;;8414391;27;27552;-77
2022/10/09 10:02:17;;;;;;;;;;;;;;;;;;8411061;27;28436;-77
2022/10/09 10:06:17;;;;;;;;;;;;;;;;;;8416749;27;27576;-76
2022/10/09 10:10:18;;;;;;;;;;;;;;;;;;8414167;28;27621;-76
2022/10/09 10:14:18;;;;;;;;;;;;;;;;;;8415923;28;27614;-75
2022/10/09 10:18:18;;;;;;;;;;;;;;;;;;8405341;27;27307;-76
2022/10/09 10:22:18;;;;;;;;;;;;;;;;;;8412109;28;28261;-78
2022/10/09 10:26:18;;;;;;;;;;;;;;;;;;8411362;28;27454;-76
2022/10/09 10:30:18;;;;;;;;;;;;;;;;;;8417663;27;27495;-76
2022/10/09 10:34:19;;;;;;;;;;;;;;;;;;8411753;28;27641;-73
2022/10/09 10:38:19;;;;;;;;;;;;;;;;;;8413055;28;28762;-74
2022/10/09 10:42:19;;;;;;;;;;;;;;;;;;8418971;27;27535;-74
2022/10/09 10:46:19;;;;;;;;;;;;;;;;;;8412079;27;28665;-74
2022/10/09 10:50:19;;;;;;;;;;;;;;;;;;8414601;28;27390;-75
2022/10/09 10:54:19;;;;;;;;;;;;;;;;;;8413504;28;28336;-74
2022/10/09 10:58:20;;;;;;;;;;;;;;;;;;8415292;28;27185;-76
2022/10/09 11:02:20;;;;;;;;;;;;;;;;;;8410507;27;27371;-76
2022/10/09 11:06:20;;;;;;;;;;;;;;;;;;8409613;28;27370;-77
2022/10/09 11:10:20;;;;;;;;;;;;;;;;;;8410120;28;27445;-75
2022/10/09 11:14:20;;;;;;;;;;;;;;;;;;8411333;28;28285;-76
2022/10/09 11:18:20;;;;;;;;;;;;;;;;;;8437095;27;28597;-76
2022/10/09 11:22:20;;;;;;;;;;;;;;;;;;8416941;28;28533;-76
2022/10/09 11:26:21;;;;;;;;;;;;;;;;;;8442882;27;27467;-76
2022/10/09 11:30:21;;;;;;;;;;;;;;;;;;8437274;28;28295;-78
2022/10/09 11:34:21;;;;;;;;;;;;;;;;;;8447967;27;26946;-77
2022/10/09 11:38:21;;;;;;;;;;;;;;;;;;8448350;27;28488;-77
2022/10/09 11:42:21;;;;;;;;;;;;;;;;;;8438964;28;27579;-76
2022/10/09 11:46:21;;;;;;;;;;;;;;;;;;8431267;27;28176;-76
2022/10/09 11:50:21;;;;;;;;;;;;;;;;;;8411368;27;28379;-75
2022/10/09 11:54:22;;;;;;;;;;;;;;;;;;8393157;28;29059;-77
2022/10/09 11:58:22;;;;;;;;;;;;;;;;;;8393973;28;28259;-75
2022/10/09 12:02:22;;;;;;;;;;;;;;;;;;8408888;27;29615;-74
2022/10/09 12:06:22;;;;;;;;;;;;;;;;;;8409078;28;28208;-76
2022/10/09 12:10:22;;;;;;;;;;;;;;;;;;8409264;27;28476;-78
2022/10/09 12:14:22;;;;;;;;;;;;;;;;;;8396721;27;28643;-77
2022/10/09 12:18:23;;;;;;;;;;;;;;;;;;8401628;27;29677;-78
2022/10/09 12:22:23;;;;;;;;;;;;;;;;;;8390592;27;28222;-75
2022/10/09 12:26:24;;;;;;;;;;;;;;;;;;8398374;27;28126;-75
2022/10/09 12:30:24;;;;;;;;;;;;;;;;;;8399298;27;28140;-76
2022/10/09 12:34:24;;;;;;;;;;;;;;;;;;8393483;27;28241;-75
2022/10/09 12:38:24;;;;;;;;;;;;;;;;;;8399072;27;28187;-76
2022/10/09 12:42:24;;;;;;;;;;;;;;;;;;8387705;28;30398;-77
2022/10/09 12:46:24;;;;;;;;;;;;;;;;;;8414196;27;28096;-76
2022/10/09 12:50:24;;;;;;;;;;;;;;;;;;8416282;27;28023;-75
2022/10/09 12:54:25;;;;;;;;;;;;;;;;;;8417756;28;27917;-74
2022/10/09 12:58:25;;;;;;;;;;;;;;;;;;8410950;27;27600;-74
2022/10/09 13:02:25;;;;;;;;;;;;;;;;;;8412205;27;28033;-74
2022/10/09 13:06:25;;;;;;;;;;;;;;;;;;8430850;27;28502;-75
2022/10/09 13:10:25;;;;;;;;;;;;;;;;;;8412982;27;27435;-75
2022/10/09 13:14:25;;;;;;;;;;;;;;;;;;8415123;27;27491;-76
2022/10/09 13:18:26;;;;;;;;;;;;;;;;;;8412482;27;28610;-76
2022/10/09 13:22:26;;;;;;;;;;;;;;;;;;8417101;27;28610;-76
2022/10/09 13:26:26;;;;;;;;;;;;;;;;;;8417080;27;28665;-75
2022/10/09 13:30:27;;;;;;;;;;;;;;;;;;8407689;27;28225;-75
2022/10/09 13:34:27;;;;;;;;;;;;;;;;;;8416007;28;27418;-75
2022/10/09 13:38:28;;;;;;;;;;;;;;;;;;8415897;28;28425;-74
2022/10/09 13:42:28;;;;;;;;;;;;;;;;;;8417457;28;27727;-76
2022/10/09 13:46:28;;;;;;;;;;;;;;;;;;8416457;27;27406;-75
2022/10/09 13:50:28;;;;;;;;;;;;;;;;;;8418261;28;27757;-76
2022/10/09 13:54:28;;;;;;;;;;;;;;;;;;8417396;27;27631;-76
2022/10/09 13:58:28;;;;;;;;;;;;;;;;;;8410485;27;28185;-76
2022/10/09 14:02:29;;;;;;;;;;;;;;;;;;8412935;28;28437;-77
2022/10/09 14:06:29;;;;;;;;;;;;;;;;;;8411836;28;28653;-77
2022/10/09 14:10:29;;;;;;;;;;;;;;;;;;8406356;27;27461;-75
2022/10/09 14:14:29;;;;;;;;;;;;;;;;;;8420362;27;28645;-76
2022/10/09 14:18:30;;;;;;;;;;;;;;;;;;8427090;27;28462;-76
2022/10/09 14:22:30;;;;;;;;;;;;;;;;;;8411002;28;27247;-76
2022/10/09 14:26:30;;;;;;;;;;;;;;;;;;8400694;27;28527;-79
2022/10/09 14:30:30;;;;;;;;;;;;;;;;;;8427954;27;28247;-76
2022/10/09 14:34:30;;;;;;;;;;;;;;;;;;8403182;27;29500;-76
2022/10/09 14:38:30;;;;;;;;;;;;;;;;;;8395961;27;28628;-76
2022/10/09 14:42:30;;;;;;;;;;;;;;;;;;8401088;28;29196;-75
2022/10/09 14:46:32;;;;;;;;;;;;;;;;;;8416229;27;27363;-75
2022/10/09 14:50:32;;;;;;;;;;;;;;;;;;8411388;28;27487;-75
2022/10/09 14:54:33;;;;;;;;;;;;;;;;;;8410258;27;27419;-74
2022/10/09 14:58:33;;;;;;;;;;;;;;;;;;8401536;28;28273;-73
2022/10/09 15:02:33;;;;;;;;;;;;;;;;;;8408464;27;28210;-76
2022/10/09 15:06:33;;;;;;;;;;;;;;;;;;8426066;27;28638;-75
2022/10/09 15:10:33;;;;;;;;;;;;;;;;;;8410634;27;27380;-75
2022/10/09 15:14:33;;;;;;;;;;;;;;;;;;8408657;28;27440;-76
2022/10/09 15:18:33;;;;;;;;;;;;;;;;;;8409163;28;28632;-76
2022/10/09 15:22:34;;;;;;;;;;;;;;;;;;8408533;28;28195;-76
2022/10/09 15:26:35;;;;;;;;;;;;;;;;;;8412186;27;27519;-75
2022/10/09 15:30:35;;;;;;;;;;;;;;;;;;8407852;27;28387;-76
2022/10/09 15:34:35;;;;;;;;;;;;;;;;;;8412558;28;27254;-77
2022/10/09 15:38:35;;;;;;;;;;;;;;;;;;8410530;27;28736;-75
2022/10/09 15:42:36;;;;;;;;;;;;;;;;;;8410907;27;28066;-76
2022/10/09 15:46:36;;;;;;;;;;;;;;;;;;8406221;28;28227;-76
2022/10/09 15:50:36;;;;;;;;;;;;;;;;;;8396475;28;28258;-76
2022/10/09 15:54:37;;;;;;;;;;;;;;;;;;8410231;28;27500;-76
2022/10/09 15:58:37;;;;;;;;;;;;;;;;;;8413463;27;27300;-76
2022/10/09 16:02:37;;;;;;;;;;;;;;;;;;8427322;27;28217;-76
2022/10/09 16:06:37;;;;;;;;;;;;;;;;;;8410778;27;27504;-76
2022/10/09 16:10:37;;;;;;;;;;;;;;;;;;8414554;27;28055;-76
2022/10/09 16:14:38;;;;;;;;;;;;;;;;;;8413747;27;27548;-75
2022/10/09 16:18:38;;;;;;;;;;;;;;;;;;8398895;28;28632;-76
2022/10/09 16:22:39;;;;;;;;;;;;;;;;;;8409028;27;28249;-77
2022/10/09 16:26:39;;;;;;;;;;;;;;;;;;8410234;27;27259;-76
2022/10/09 16:30:39;;;;;;;;;;;;;;;;;;8412404;28;28105;-74
2022/10/09 16:34:39;;;;;;;;;;;;;;;;;;8416190;27;28724;-76
2022/10/09 16:38:39;;;;;;;;;;;;;;;;;;8412492;28;27436;-76
2022/10/09 16:42:40;;;;;;;;;;;;;;;;;;8413887;28;27187;-76
2022/10/09 16:46:40;;;;;;;;;;;;;;;;;;8418024;28;27308;-75
2022/10/09 16:50:40;;;;;;;;;;;;;;;;;;8426109;27;28440;-76
2022/10/09 16:54:40;;;;;;;;;;;;;;;;;;8428959;28;28173;-77
2022/10/09 16:58:41;;;;;;;;;;;;;;;;;;8442386;28;27656;-76
2022/10/09 17:02:41;;;;;;;;;;;;;;;;;;8437840;27;28587;-75
2022/10/09 17:06:42;;;;;;;;;;;;;;;;;;8432653;28;27654;-77
2022/10/09 17:10:42;;;;;;;;;;;;;;;;;;8436054;28;28230;-76
2022/10/09 17:14:42;;;;;;;;;;;;;;;;;;8440926;28;29504;-75
2022/10/09 17:18:43;;;;;;;;;;;;;;;;;;8413411;28;28253;-75
2022/10/09 17:22:43;;;;;;;;;;;;;;;;;;8424374;27;28419;-75
2022/10/09 17:26:43;;;;;;;;;;;;;;;;;;8398934;28;28530;-75
2022/10/09 17:30:43;;;;;;;;;;;;;;;;;;8426334;27;28494;-75
2022/10/09 17:34:44;;;;;;;;;;;;;;;;;;8416611;28;27338;-75
2022/10/09 17:38:45;;;;;;;;;;;;;;;;;;8418623;28;27431;-75
2022/10/09 17:42:45;;;;;;;;;;;;;;;;;;8406138;28;28311;-75
2022/10/09 17:46:45;;;;;;;;;;;;;;;;;;8417707;27;27637;-77
2022/10/09 17:50:45;;;;;;;;;;;;;;;;;;8431662;27;28740;-77
2022/10/09 17:54:45;;;;;;;;;;;;;;;;;;8415094;27;27492;-77
2022/10/09 17:58:49;;;;;;;;;;;;;;;;;;8416003;28;28349;-76
2022/10/09 18:02:49;;;;;;;;;;;;;;;;;;8429831;27;28423;-75
2022/10/09 18:06:49;;;;;;;;;;;;;;;;;;8389668;27;28381;-76
2022/10/09 18:10:49;;;;;;;;;;;;;;;;;;8409338;28;27561;-74
2022/10/09 18:14:49;;;;;;;;;;;;;;;;;;8405819;27;28457;-75
2022/10/09 18:18:49;;;;;;;;;;;;;;;;;;8415655;28;28377;-76
2022/10/09 18:22:49;;;;;;;;;;;;;;;;;;8429703;27;28205;-75
2022/10/09 18:26:50;;;;;;;;;;;;;;;;;;8411152;27;27129;-75
2022/10/09 18:30:51;;;;;;;;;;;;;;;;;;8396114;28;28935;-76
2022/10/09 18:34:51;;;;;;;;;;;;;;;;;;8412251;28;28930;-78
2022/10/09 18:38:51;;;;;;;;;;;;;;;;;;8410587;27;28209;-76
2022/10/09 18:42:51;;;;;;;;;;;;;;;;;;8413762;27;27951;-76
2022/10/09 18:46:51;;;;;;;;;;;;;;;;;;8430953;27;28651;-75
2022/10/09 18:50:51;;;;;;;;;;;;;;;;;;8428326;27;28207;-76
2022/10/09 18:54:52;;;;;;;;;;;;;;;;;;8414194;27;27132;-76
2022/10/09 18:58:52;;;;;;;;;;;;;;;;;;8401663;28;28626;-77
2022/10/09 19:02:52;;;;;;;;;;;;;;;;;;8414097;28;27264;-77
2022/10/09 19:06:53;;;;;;;;;;;;;;;;;;8413581;27;27861;-76
2022/10/09 19:10:55;;;;;;;;;;;;;;;;;;8412190;28;46700;-77
2022/10/09 19:14:55;;;;;;;;;;;;;;;;;;8416125;28;27761;-76
2022/10/09 19:18:55;;;;;;;;;;;;;;;;;;8412626;28;27465;-76
2022/10/09 19:22:55;;;;;;;;;;;;;;;;;;8412572;27;27459;-76
2022/10/09 19:26:55;;;;;;;;;;;;;;;;;;8416441;27;27582;-76
2022/10/09 19:30:56;;;;;;;;;;;;;;;;;;8412502;28;28808;-76
2022/10/09 19:34:56;;;;;;;;;;;;;;;;;;8411616;28;28853;-76
2022/10/09 19:38:56;;;;;;;;;;;;;;;;;;8414275;28;27626;-77
2022/10/09 19:42:56;;;;;;;;;;;;;;;;;;8423181;27;28312;-76
2022/10/09 19:46:57;;;;;;;;;;;;;;;;;;8409274;27;27537;-76
2022/10/09 19:50:57;;;;;;;;;;;;;;;;;;8407173;27;28630;-76
2022/10/09 19:54:57;;;;;;;;;;;;;;;;;;8409148;27;28210;-76
2022/10/09 19:58:57;;;;;;;;;;;;;;;;;;8399496;27;28485;-76
2022/10/09 20:02:57;;;;;;;;;;;;;;;;;;8411435;27;27403;-75
2022/10/09 20:06:58;;;;;;;;;;;;;;;;;;8413127;28;27484;-76
2022/10/09 20:11:01;;;;;;;;;;;;;;;;;;8405883;27;28353;-76
2022/10/09 20:15:01;;;;;;;;;;;;;;;;;;8395205;28;28286;-76
2022/10/09 20:19:02;;;;;;;;;;;;;;;;;;8409808;27;28108;-75
2022/10/09 20:23:02;;;;;;;;;;;;;;;;;;8400030;28;28207;-76
2022/10/09 20:27:02;;;;;;;;;;;;;;;;;;8407613;28;28393;-75
2022/10/09 20:31:06;;;;;;;;;;;;;;;;;;8399536;28;28453;-75
2022/10/09 20:35:07;;;;;;;;;;;;;;;;;;8414848;27;27398;-76
2022/10/09 20:39:07;;;;;;;;;;;;;;;;;;8409435;27;28021;-75
2022/10/09 20:43:07;;;;;;;;;;;;;;;;;;8411759;28;28072;-74
2022/10/09 20:47:07;;;;;;;;;;;;;;;;;;8412956;28;28073;-73
2022/10/09 20:51:07;;;;;;;;;;;;;;;;;;8396824;27;28418;-74
2022/10/09 20:55:07;;;;;;;;;;;;;;;;;;8407449;28;29940;-75
2022/10/09 20:59:08;;;;;;;;;;;;;;;;;;8409344;27;27445;-73
2022/10/09 21:03:08;;;;;;;;;;;;;;;;;;8404360;27;28195;-75
2022/10/09 21:07:08;;;;;;;;;;;;;;;;;;8421348;27;28147;-75
2022/10/09 21:11:08;;;;;;;;;;;;;;;;;;8419996;27;28405;-75
2022/10/09 21:15:08;;;;;;;;;;;;;;;;;;8396570;28;29257;-75
2022/10/09 21:19:08;;;;;;;;;;;;;;;;;;8410974;28;27750;-76
2022/10/09 21:23:09;;;;;;;;;;;;;;;;;;8410008;28;27814;-76
2022/10/09 21:27:09;;;;;;;;;;;;;;;;;;8409266;27;29193;-76
2022/10/09 21:31:09;;;;;;;;;;;;;;;;;;8413419;28;27437;-75
2022/10/09 21:35:09;;;;;;;;;;;;;;;;;;8411783;28;28377;-76
2022/10/09 21:39:09;;;;;;;;;;;;;;;;;;8405306;27;27219;-76
2022/10/09 21:43:09;;;;;;;;;;;;;;;;;;8407314;28;27383;-75
2022/10/09 21:47:09;;;;;;;;;;;;;;;;;;8410628;27;28655;-75
2022/10/09 21:51:10;;;;;;;;;;;;;;;;;;8415453;28;27162;-77
2022/10/09 21:55:10;;;;;;;;;;;;;;;;;;8412363;27;28068;-78
2022/10/09 21:59:10;;;;;;;;;;;;;;;;;;8416431;27;28672;-74
2022/10/09 22:03:10;;;;;;;;;;;;;;;;;;8413402;28;28681;-77
2022/10/09 22:07:10;;;;;;;;;;;;;;;;;;8412966;28;28128;-76
2022/10/09 22:11:11;;;;;;;;;;;;;;;;;;8411607;27;27544;-75
2022/10/09 22:15:11;;;;;;;;;;;;;;;;;;8411566;28;27634;-75
2022/10/09 22:19:11;;;;;;;;;;;;;;;;;;8428843;27;28459;-76
2022/10/09 22:23:11;;;;;;;;;;;;;;;;;;8423375;27;27309;-77
2022/10/09 22:27:11;;;;;;;;;;;;;;;;;;8459782;27;28305;-77
2022/10/09 22:31:11;;;;;;;;;;;;;;;;;;8442954;27;28438;-75
2022/10/09 22:35:12;;;;;;;;;;;;;;;;;;8435854;27;28521;-75
2022/10/09 22:39:12;;;;;;;;;;;;;;;;;;8441730;28;28594;-75
2022/10/09 22:43:12;;;;;;;;;;;;;;;;;;8457292;27;28452;-76
2022/10/09 22:47:12;;;;;;;;;;;;;;;;;;8431656;27;27346;-76
2022/10/09 22:51:12;;;;;;;;;;;;;;;;;;8406945;28;27186;-74
2022/10/09 22:55:12;;;;;;;;;;;;;;;;;;8412337;27;28254;-77
2022/10/09 22:59:12;;;;;;;;;;;;;;;;;;8407762;27;27487;-76
2022/10/09 23:03:13;;;;;;;;;;;;;;;;;;8409086;28;28516;-77
2022/10/09 23:07:13;;;;;;;;;;;;;;;;;;8404690;28;28156;-76
2022/10/09 23:11:13;;;;;;;;;;;;;;;;;;8406942;27;27585;-77
2022/10/09 23:15:13;;;;;;;;;;;;;;;;;;8408618;28;28591;-75
2022/10/09 23:19:13;;;;;;;;;;;;;;;;;;8403030;28;28542;-76
2022/10/09 23:23:13;;;;;;;;;;;;;;;;;;8394104;28;28569;-74
2022/10/09 23:27:13;;;;;;;;;;;;;;;;;;8407359;28;27407;-76
2022/10/09 23:31:13;;;;;;;;;;;;;;;;;;8392679;28;28430;-76
2022/10/09 23:35:14;;;;;;;;;;;;;;;;;;8407451;28;27688;-75
2022/10/09 23:39:14;;;;;;;;;;;;;;;;;;8410265;27;28159;-76
2022/10/09 23:43:14;;;;;;;;;;;;;;;;;;8410212;27;28003;-77
2022/10/09 23:47:14;;;;;;;;;;;;;;;;;;8405599;27;29179;-77
2022/10/09 23:51:14;;;;;;;;;;;;;;;;;;8409020;28;28585;-77
2022/10/09 23:55:14;;;;;;;;;;;;;;;;;;8413640;28;28001;-76
2022/10/09 23:59:15;;;;;;;;;;;;;;;;;;8409540;28;27407;-76
